Аэропорт: Астана. Астана

ICAO: UACC

METAR:
2024-07-24 16:00:00
UACC 241600Z 32003MPS 9999 SCT043 19/14 Q1004 NOSIG RMK QFE722/0963
TAF:
2024-07-24 11:04:00
TAF UACC 241104Z 2412/2512 30006MPS 9999 SCT040CB BKN100 TX28/2510Z TN15/2500Z 
  TEMPO 2412/2416 VRB18MPS 3100 -TSRA SQ BKN030CB 
  BECMG 2416/2418 35005MPS SCT030 BKN100 
  TEMPO 2418/2504 04005MPS 3100 BR FEW003 
  TEMPO 2504/2512 08003MPS SCT030CB